Aérodrome :
LOGIN :

S'inscrire | Disclaimer

   EN    FR    IT 

 










Légende :    VFR   VFR Marginal   IFR   IFR Intensif   IFR Très Intensif
Visi : 
Plafond : 
>= 8 km
>= 3000ft
5 à 8 km
1000 à 3000 ft
1500m à 5 km
500 à 1000 ft
800 à 1500m
200 à 500 ft
< 800m
< 200 ft
Symboles :   Orages  Brouillard  Fortes neiges  Fortes précipitations  Vent > 20 kt
SIGMETs :   Divers  Orages  Givrage  Turbulence  Onde Orograph.  Cendres Volcan.






- Altitude de l'aérodrome : 375 ft
- Code IATA : MST


EHBK - Maastricht Aachen

DERNIER METAR :
  • 160155Z AUTO 19003KT 9000 OVC039 M00/M01 Q1029

METARs EXPIRÉS :
  • 160125Z AUTO 20003KT 9999 OVC040 M00/M01 Q1029
  • 160055Z AUTO VRB02KT 9000 OVC039 M00/M02 Q1029
  • 160025Z AUTO VRB01KT 9000 OVC039 M00/M01 Q1029
  • 152355Z AUTO VRB01KT 9999 OVC038 M00/M01 Q1029
  • 152325Z AUTO VRB01KT 9999 OVC037 M00/M02 Q1029

TAF TAF EHBK
Valide du 16 à 00h jusqu'au 17 à 06h UTC


152312Z 1600/1706 22003KT 9999 BKN030
PROB30
TEMPO 1602/1609 4000 BR MIFG
BECMG 1615/1618 19010KT 1500 -SN BKN008
TEMPO 1617/1622 0700 SN VV003
PROB40
TEMPO 1622/1704 4000 BR -FZDZ
BECMG 1701/1704 23007KT 2500 RADZ BKN003
PROB40
TEMPO 1702/1705 0800 FG BKN001



MET'MAP, la Météo Aéronautique d'un coup d'oeil ! - Copyright ORBIFLY Décembre 2007 - Disclaimer

ORBIFLY MET'MAP TEAM :

Programmation & Développement : Alexandra Zaïnal
Sur une idée originale de : Baudouin d'Aumeries
Assistance à la programmation : Marc-Olivier Méhu
Soutien technique & logistique : Manuel Goepfert

Contact : metmap@orbifly.com




SOURCES & CREDITS :

   NOAA